createdAt,value
2019-05-07T00:00:44.105Z,69.85
2019-05-07T00:03:12.373Z,70.14
2019-05-07T00:05:39.421Z,70.42
2019-05-07T00:08:06.287Z,69.98
2019-05-07T00:10:33.327Z,70.50
2019-05-07T00:13:02.238Z,71.10
2019-05-07T00:15:29.927Z,70.78
2019-05-07T00:17:57.105Z,71.49
2019-05-07T00:20:24.276Z,71.74
2019-05-07T00:22:53.262Z,71.86
2019-05-07T00:25:19.838Z,72.22
2019-05-07T00:27:46.934Z,72.22
2019-05-07T00:30:14.679Z,71.64
2019-05-07T00:32:42.434Z,71.85
2019-05-07T00:35:13.063Z,71.44
2019-05-07T00:37:45.011Z,72.19
2019-05-07T00:40:24.458Z,72.37
2019-05-07T00:43:12.007Z,71.78
2019-05-07T00:45:44.875Z,71.21
2019-05-07T00:48:14.121Z,70.85
2019-05-07T00:50:44.542Z,71.25
2019-05-07T00:53:13.362Z,71.01
2019-05-07T00:55:42.160Z,70.88
2019-05-07T00:58:09.076Z,70.87
2019-05-07T01:00:37.190Z,71.27
2019-05-07T01:03:04.184Z,70.77
2019-05-07T01:05:32.607Z,71.29
2019-05-07T01:08:02.377Z,71.85
2019-05-07T01:10:32.964Z,72.19
2019-05-07T01:12:59.792Z,71.87
2019-05-07T01:15:32.105Z,71.27
2019-05-07T01:17:59.596Z,70.81
2019-05-07T01:20:32.767Z,70.92
2019-05-07T01:23:02.616Z,70.72
2019-05-07T01:25:29.589Z,70.97
2019-05-07T01:27:56.377Z,71.31
2019-05-07T01:30:23.250Z,72.11
2019-05-07T01:32:55.429Z,71.86
2019-05-07T01:35:24.153Z,71.80
2019-05-07T01:37:52.437Z,72.66
2019-05-07T01:40:19.462Z,72.08
2019-05-07T01:42:46.415Z,71.74
2019-05-07T01:45:16.683Z,71.24
2019-05-07T01:47:43.536Z,71.49
2019-05-07T01:50:13.209Z,71.83
2019-05-07T01:52:39.966Z,72.08
2019-05-07T01:55:07.069Z,72.18
2019-05-07T01:57:34.311Z,72.75
2019-05-07T02:00:02.621Z,73.50
2019-05-07T02:02:32.191Z,73.83
2019-05-07T02:05:03.232Z,72.92
2019-05-07T02:07:36.875Z,72.60
2019-05-07T02:10:19.123Z,72.84
2019-05-07T02:12:45.930Z,72.61
2019-05-07T02:15:13.298Z,72.08
2019-05-07T02:17:42.856Z,72.48
2019-05-07T02:20:12.924Z,72.81
2019-05-07T02:22:39.563Z,72.94
2019-05-07T02:25:07.285Z,72.64
2019-05-07T02:27:34.059Z,72.54
2019-05-07T02:30:04.171Z,72.47
2019-05-07T02:32:33.121Z,72.10
2019-05-07T02:34:59.377Z,72.05
2019-05-07T02:37:35.760Z,72.28
2019-05-07T02:40:07.476Z,72.27
2019-05-07T02:42:34.775Z,72.48
2019-05-07T02:45:05.306Z,72.58
2019-05-07T02:47:33.512Z,72.75
2019-05-07T02:50:07.934Z,72.93
2019-05-07T02:52:53.840Z,72.99
2019-05-07T02:55:23.461Z,72.38
2019-05-07T02:57:54.000Z,73.00
2019-05-07T03:00:23.780Z,72.62
2019-05-07T03:02:49.377Z,72.54
2019-05-07T03:05:16.313Z,72.89
2019-05-07T03:07:43.907Z,72.41
2019-05-07T03:10:13.866Z,72.08
2019-05-07T03:12:42.982Z,72.65
2019-05-07T03:15:12.960Z,73.23
2019-05-07T03:17:38.801Z,72.83
2019-05-07T03:20:08.511Z,71.78
2019-05-07T03:22:35.501Z,71.41
2019-05-07T03:25:06.026Z,71.78
2019-05-07T03:27:34.101Z,71.86
2019-05-07T03:30:10.165Z,71.40
2019-05-07T03:32:40.371Z,72.07
2019-05-07T03:35:28.714Z,71.65
2019-05-07T03:37:56.705Z,72.09
2019-05-07T03:40:25.649Z,72.26
2019-05-07T03:42:53.492Z,72.54
2019-05-07T03:45:25.739Z,72.23
2019-05-07T03:48:03.710Z,72.21
2019-05-07T03:50:30.213Z,71.77
2019-05-07T03:52:57.005Z,71.39
2019-05-07T03:55:23.819Z,71.60
2019-05-07T03:57:52.818Z,71.68
2019-05-07T04:00:19.981Z,71.32
2019-05-07T04:02:46.969Z,71.75
2019-05-07T04:05:14.498Z,71.89
2019-05-07T04:07:43.099Z,71.63
2019-05-07T04:10:14.485Z,71.86
2019-05-07T04:12:39.152Z,72.72
2019-05-07T04:15:06.827Z,72.94
2019-05-07T04:17:34.116Z,72.75
2019-05-07T04:20:04.503Z,72.22
2019-05-07T04:22:30.399Z,71.88
2019-05-07T04:24:59.926Z,71.21
2019-05-07T04:27:47.206Z,71.26
2019-05-07T04:30:14.516Z,71.12
2019-05-07T04:32:43.590Z,71.33
2019-05-07T04:35:26.486Z,71.13
2019-05-07T04:37:53.465Z,71.70
2019-05-07T04:40:23.725Z,72.18
2019-05-07T04:42:49.286Z,71.70
2019-05-07T04:45:16.382Z,71.71
2019-05-07T04:47:47.576Z,71.82
2019-05-07T04:50:14.260Z,71.74
2019-05-07T04:52:43.669Z,71.37
2019-05-07T04:55:13.837Z,70.60
2019-05-07T04:57:40.153Z,70.32
2019-05-07T05:00:09.780Z,69.88
2019-05-07T05:02:53.649Z,69.65
2019-05-07T05:05:23.515Z,69.96
2019-05-07T05:07:53.146Z,71.06
2019-05-07T05:10:22.757Z,70.82
2019-05-07T05:12:48.549Z,70.66
2019-05-07T05:15:15.659Z,70.28
2019-05-07T05:17:50.416Z,70.12
2019-05-07T05:20:13.182Z,70.62
2019-05-07T05:22:58.995Z,70.74
2019-05-07T05:25:27.768Z,70.81
2019-05-07T05:27:54.564Z,71.18
2019-05-07T05:30:29.748Z,71.01
2019-05-07T05:32:56.569Z,70.85
2019-05-07T05:35:23.914Z,70.45
2019-05-07T05:37:52.080Z,70.18
2019-05-07T05:40:19.684Z,70.26
2019-05-07T05:42:48.533Z,69.79
2019-05-07T05:45:21.787Z,69.59
2019-05-07T05:48:01.999Z,69.42
2019-05-07T05:50:17.445Z,69.27
2019-05-07T05:52:46.660Z,68.96
2019-05-07T05:55:14.277Z,68.62
2019-05-07T05:57:46.004Z,68.25
2019-05-07T06:00:15.358Z,67.59
2019-05-07T06:02:53.188Z,67.37
2019-05-07T06:05:37.301Z,66.97
2019-05-07T06:08:07.517Z,66.57
2019-05-07T06:10:52.662Z,66.30
2019-05-07T06:13:24.474Z,65.69
2019-05-07T06:15:56.479Z,65.44
2019-05-07T06:18:37.560Z,65.62
2019-05-07T06:21:15.283Z,65.58
2019-05-07T06:23:47.212Z,65.66
2019-05-07T06:26:14.070Z,65.92
2019-05-07T06:28:42.568Z,66.06
2019-05-07T06:31:10.049Z,66.22
2019-05-07T06:33:37.050Z,65.99
2019-05-07T06:36:04.417Z,65.72
2019-05-07T06:38:33.100Z,65.14
2019-05-07T06:41:09.168Z,65.08
2019-05-07T06:43:54.074Z,65.37
2019-05-07T06:46:23.057Z,65.15
2019-05-07T06:48:49.991Z,64.82
2019-05-07T06:51:17.623Z,64.59
2019-05-07T06:53:44.843Z,64.42
2019-05-07T06:56:12.231Z,64.08
2019-05-07T06:58:46.946Z,63.74
2019-05-07T07:01:32.271Z,63.54
2019-05-07T07:03:59.484Z,63.52
2019-05-07T07:06:28.489Z,63.37
2019-05-07T07:09:14.186Z,63.28
2019-05-07T07:11:45.998Z,63.03
2019-05-07T07:14:14.013Z,62.90
2019-05-07T07:16:42.046Z,62.66
2019-05-07T07:19:09.250Z,62.28
2019-05-07T07:21:36.484Z,62.01
2019-05-07T07:24:03.360Z,61.64
2019-05-07T07:26:32.667Z,61.00
2019-05-07T07:29:01.890Z,60.41
2019-05-07T07:31:33.287Z,59.75
2019-05-07T07:34:02.396Z,59.45
2019-05-07T07:36:32.084Z,58.57
2019-05-07T07:38:59.403Z,58.33
2019-05-07T07:41:45.750Z,57.29
2019-05-07T07:44:13.218Z,57.39
2019-05-07T07:46:42.401Z,56.66
2019-05-07T07:49:14.911Z,55.81
2019-05-07T07:51:42.726Z,55.54
2019-05-07T07:54:13.108Z,54.85
2019-05-07T07:56:50.135Z,54.81
2019-05-07T07:59:32.793Z,54.37
2019-05-07T08:02:01.760Z,54.05
2019-05-07T08:04:28.939Z,53.36
2019-05-07T08:06:57.941Z,52.92
2019-05-07T08:09:25.889Z,52.25
2019-05-07T08:11:53.034Z,52.08
2019-05-07T08:14:22.287Z,51.03
2019-05-07T08:16:52.863Z,51.16
2019-05-07T08:19:22.769Z,51.12
2019-05-07T08:21:49.550Z,51.08
2019-05-07T08:24:16.803Z,50.19
2019-05-07T08:26:43.992Z,50.23
2019-05-07T08:29:13.344Z,49.06
2019-05-07T08:31:57.663Z,48.95
2019-05-07T08:34:26.564Z,48.48
2019-05-07T08:36:53.538Z,48.76
2019-05-07T08:39:24.720Z,48.41
2019-05-07T08:41:49.447Z,48.06
2019-05-07T08:44:27.362Z,47.68
2019-05-07T08:47:12.959Z,47.23
2019-05-07T08:49:43.385Z,46.98
2019-05-07T08:52:11.970Z,46.54
2019-05-07T08:54:39.729Z,45.83
2019-05-07T08:57:06.976Z,44.34
2019-05-07T08:59:34.978Z,45.66
2019-05-07T09:02:03.229Z,44.48
2019-05-07T09:04:32.377Z,45.11
2019-05-07T09:07:02.565Z,45.58
2019-05-07T09:09:32.081Z,45.11
2019-05-07T09:11:58.868Z,44.79
2019-05-07T09:14:26.342Z,45.12
2019-05-07T09:16:54.151Z,44.47
2019-05-07T09:19:21.721Z,44.13
2019-05-07T09:21:49.505Z,43.47
2019-05-07T09:24:16.332Z,43.44
2019-05-07T09:26:45.202Z,43.52
2019-05-07T09:29:17.875Z,43.56
2019-05-07T09:31:47.716Z,43.36
2019-05-07T09:34:14.910Z,42.53
2019-05-07T09:36:43.849Z,41.87
2019-05-07T09:39:12.071Z,41.61
2019-05-07T09:41:41.671Z,40.65
2019-05-07T09:44:09.144Z,40.84
2019-05-07T09:46:37.131Z,40.47
2019-05-07T09:49:04.973Z,40.65
2019-05-07T09:51:32.853Z,40.54
2019-05-07T09:54:02.396Z,40.71
2019-05-07T09:56:29.288Z,40.56
2019-05-07T09:58:56.570Z,38.89
2019-05-07T10:01:23.767Z,39.20
2019-05-07T10:03:51.824Z,39.01
2019-05-07T10:06:18.926Z,39.25
2019-05-07T10:08:46.353Z,39.15
2019-05-07T10:11:15.555Z,39.24
2019-05-07T10:14:04.363Z,39.32
2019-05-07T10:16:33.478Z,39.06
2019-05-07T10:19:05.193Z,38.56
2019-05-07T10:21:34.511Z,39.00
2019-05-07T10:24:02.473Z,38.50
2019-05-07T10:26:29.568Z,38.47
2019-05-07T10:29:02.136Z,38.70
2019-05-07T10:31:29.090Z,38.61
2019-05-07T10:33:56.203Z,38.68
2019-05-07T10:36:23.112Z,38.62
2019-05-07T10:38:51.916Z,38.24
2019-05-07T10:41:19.498Z,37.84
2019-05-07T10:43:48.491Z,37.91
2019-05-07T10:46:20.027Z,37.48
2019-05-07T10:49:05.678Z,37.45
2019-05-07T10:51:35.095Z,37.13
2019-05-07T10:54:05.003Z,36.85
2019-05-07T10:56:32.673Z,36.24
2019-05-07T10:59:02.655Z,35.03
2019-05-07T11:01:34.178Z,35.71
2019-05-07T11:04:02.234Z,35.42
2019-05-07T11:06:29.476Z,35.52
2019-05-07T11:08:57.082Z,35.31
2019-05-07T11:11:23.976Z,35.11
2019-05-07T11:13:55.539Z,36.33
2019-05-07T11:16:22.187Z,36.48
2019-05-07T11:18:51.873Z,36.51
2019-05-07T11:21:33.340Z,36.27
2019-05-07T11:24:03.106Z,36.23
2019-05-07T11:26:30.262Z,35.68
2019-05-07T11:28:57.041Z,35.72
2019-05-07T11:31:23.970Z,35.45
2019-05-07T11:33:52.109Z,35.31
2019-05-07T11:36:19.473Z,35.35
2019-05-07T11:38:46.622Z,35.46
2019-05-07T11:41:14.122Z,34.70
2019-05-07T11:43:43.838Z,34.94
2019-05-07T11:46:24.294Z,34.97
2019-05-07T11:48:53.248Z,34.15
2019-05-07T11:51:27.962Z,33.41
2019-05-07T11:54:08.629Z,32.60
2019-05-07T11:56:36.433Z,32.51
2019-05-07T11:59:04.466Z,32.48
2019-05-07T12:01:43.571Z,32.02
2019-05-07T12:04:05.313Z,32.11
2019-05-07T12:06:32.701Z,32.74
2019-05-07T12:08:59.961Z,33.74
2019-05-07T12:11:27.020Z,33.85
2019-05-07T12:13:57.238Z,33.25
2019-05-07T12:16:23.613Z,32.54
2019-05-07T12:18:55.452Z,31.52
2019-05-07T12:21:24.309Z,31.24
2019-05-07T12:23:52.531Z,31.03
2019-05-07T12:26:22.133Z,31.07
2019-05-07T12:28:49.032Z,31.60
2019-05-07T12:31:22.453Z,32.08
2019-05-07T12:34:02.439Z,32.10
2019-05-07T12:36:31.876Z,32.24
2019-05-07T12:38:59.097Z,32.39
2019-05-07T12:41:29.635Z,32.66
2019-05-07T12:44:04.694Z,32.35
2019-05-07T12:46:33.458Z,32.07
2019-05-07T12:49:03.184Z,32.06
2019-05-07T12:51:37.119Z,32.58
2019-05-07T12:54:06.051Z,33.21
2019-05-07T12:56:36.042Z,33.66
2019-05-07T12:59:04.803Z,33.88
2019-05-07T13:01:35.138Z,33.92
2019-05-07T13:04:16.193Z,34.08
2019-05-07T13:06:45.702Z,33.99
2019-05-07T13:09:13.101Z,33.34
2019-05-07T13:11:42.501Z,33.06
2019-05-07T13:14:09.823Z,32.42
2019-05-07T13:16:36.636Z,32.14
2019-05-07T13:19:03.548Z,32.43
2019-05-07T13:21:33.180Z,32.60
2019-05-07T13:23:59.785Z,32.92
2019-05-07T13:26:26.953Z,33.05
2019-05-07T13:28:54.597Z,33.01
2019-05-07T13:31:27.719Z,33.03
2019-05-07T13:33:58.323Z,32.54
2019-05-07T13:36:26.218Z,32.33
2019-05-07T13:38:55.944Z,32.30
2019-05-07T13:41:54.311Z,31.92
2019-05-07T13:44:22.881Z,30.47
2019-05-07T13:46:54.091Z,31.01
2019-05-07T13:49:22.002Z,31.85
2019-05-07T13:52:02.880Z,31.16
2019-05-07T13:54:21.795Z,32.31
2019-05-07T13:56:48.917Z,30.69
2019-05-07T13:59:16.170Z,29.46
2019-05-07T14:01:48.048Z,29.07
2019-05-07T14:04:15.128Z,29.37
2019-05-07T14:06:42.978Z,29.81
2019-05-07T14:09:15.158Z,30.55
2019-05-07T14:11:42.646Z,31.15
2019-05-07T14:14:09.729Z,31.39
2019-05-07T14:16:36.868Z,31.77
2019-05-07T14:19:04.326Z,32.09
2019-05-07T14:21:32.497Z,32.11
2019-05-07T14:24:00.538Z,32.38
2019-05-07T14:26:28.618Z,32.47
2019-05-07T14:28:57.063Z,32.64
2019-05-07T14:31:24.044Z,32.66
2019-05-07T14:34:02.873Z,32.51
2019-05-07T14:36:34.785Z,32.03
2019-05-07T14:39:09.167Z,31.70
2019-05-07T14:41:43.287Z,31.76
2019-05-07T14:44:12.128Z,31.33
2019-05-07T14:46:47.359Z,29.32
2019-05-07T14:49:08.895Z,32.14
2019-05-07T14:51:35.979Z,32.10
2019-05-07T14:54:03.397Z,32.23
2019-05-07T14:56:32.338Z,32.13
2019-05-07T14:59:02.160Z,31.96
2019-05-07T15:01:30.751Z,31.82
2019-05-07T15:04:02.148Z,32.12
2019-05-07T15:06:29.241Z,32.40
2019-05-07T15:08:56.405Z,32.62
2019-05-07T15:11:23.967Z,32.57
2019-05-07T15:13:52.201Z,32.06
2019-05-07T15:16:19.409Z,31.24
2019-05-07T15:18:49.495Z,30.64
2019-05-07T15:21:17.055Z,30.80
2019-05-07T15:23:45.053Z,31.17
2019-05-07T15:26:12.843Z,31.14
2019-05-07T15:28:42.073Z,31.00
2019-05-07T15:31:12.319Z,30.88
2019-05-07T15:33:41.660Z,30.83
2019-05-07T15:36:08.651Z,31.25
2019-05-07T15:38:35.672Z,31.35
2019-05-07T15:41:04.639Z,31.88
2019-05-07T15:43:32.410Z,32.23
2019-05-07T15:46:04.364Z,32.59
2019-05-07T15:48:32.704Z,32.73
2019-05-07T15:51:00.381Z,32.74
2019-05-07T15:53:33.623Z,32.77
2019-05-07T15:56:01.798Z,32.61
2019-05-07T15:58:29.102Z,32.84
2019-05-07T16:00:55.968Z,32.84
2019-05-07T16:03:43.895Z,32.97
2019-05-07T16:06:12.717Z,33.08
2019-05-07T16:08:44.583Z,33.23
2019-05-07T16:11:14.575Z,33.39
2019-05-07T16:14:00.367Z,33.58
2019-05-07T16:16:30.208Z,33.54
2019-05-07T16:19:06.854Z,33.58
2019-05-07T16:21:33.988Z,33.64
2019-05-07T16:24:00.839Z,33.67
2019-05-07T16:26:27.727Z,33.69
2019-05-07T16:28:58.251Z,33.87
2019-05-07T16:31:25.448Z,33.95
2019-05-07T16:33:53.878Z,34.07
2019-05-07T16:36:21.954Z,34.35
2019-05-07T16:38:49.387Z,34.15
2019-05-07T16:41:17.810Z,34.31
2019-05-07T16:43:45.290Z,34.21
2019-05-07T16:46:12.202Z,34.30
2019-05-07T16:48:39.448Z,34.40
2019-05-07T16:51:06.608Z,34.39
2019-05-07T16:53:35.355Z,34.48
2019-05-07T16:56:07.168Z,34.53
2019-05-07T16:58:36.736Z,34.51
2019-05-07T17:01:11.598Z,34.64
2019-05-07T17:03:42.592Z,34.62
2019-05-07T17:06:09.960Z,34.71
2019-05-07T17:08:42.354Z,34.63
2019-05-07T17:11:09.696Z,34.74
2019-05-07T17:13:37.364Z,34.85
2019-05-07T17:16:05.263Z,35.03
2019-05-07T17:18:32.787Z,35.15
2019-05-07T17:21:02.346Z,35.24
2019-05-07T17:23:41.370Z,35.21
2019-05-07T17:25:58.541Z,35.37
2019-05-07T17:28:27.244Z,35.52
2019-05-07T17:30:54.379Z,35.38
2019-05-07T17:33:23.111Z,35.68
2019-05-07T17:35:51.801Z,36.01
2019-05-07T17:38:19.803Z,36.07
2019-05-07T17:40:47.308Z,36.23
2019-05-07T17:43:14.252Z,36.35
2019-05-07T17:45:42.976Z,36.42
2019-05-07T17:48:12.168Z,36.61
2019-05-07T17:50:42.725Z,36.66
2019-05-07T17:53:11.949Z,36.93
2019-05-07T17:55:39.516Z,37.14
2019-05-07T17:58:08.177Z,37.24
2019-05-07T18:00:36.221Z,37.45
2019-05-07T18:03:06.491Z,37.51
2019-05-07T18:05:33.914Z,37.47
2019-05-07T18:08:02.073Z,37.32
2019-05-07T18:10:31.815Z,37.47
2019-05-07T18:12:59.289Z,37.51
2019-05-07T18:15:27.449Z,37.74
2019-05-07T18:18:08.643Z,37.92
2019-05-07T18:20:35.852Z,38.22
2019-05-07T18:23:03.016Z,38.35
2019-05-07T18:25:32.206Z,38.32
2019-05-07T18:28:01.658Z,38.76
2019-05-07T18:30:28.849Z,39.34
2019-05-07T18:33:02.410Z,39.93
2019-05-07T18:35:29.784Z,40.66
2019-05-07T18:38:02.595Z,41.39
2019-05-07T18:40:32.738Z,41.14
2019-05-07T18:43:00.265Z,41.53
2019-05-07T18:45:29.056Z,41.62
2019-05-07T18:47:56.829Z,42.01
2019-05-07T18:50:26.935Z,42.27
2019-05-07T18:52:55.510Z,42.86
2019-05-07T18:55:22.899Z,43.49
2019-05-07T18:57:51.824Z,44.07
2019-05-07T19:00:22.092Z,44.26
2019-05-07T19:02:49.562Z,44.51
2019-05-07T19:05:19.431Z,44.78
2019-05-07T19:07:46.165Z,45.07
2019-05-07T19:10:14.017Z,45.42
2019-05-07T19:12:43.044Z,45.98
2019-05-07T19:15:12.436Z,46.86
2019-05-07T19:17:39.846Z,47.17
2019-05-07T19:20:07.803Z,47.28
2019-05-07T19:22:37.762Z,47.94
2019-05-07T19:25:04.564Z,48.59
2019-05-07T19:27:32.713Z,48.76
2019-05-07T19:30:00.390Z,48.32
2019-05-07T19:32:27.603Z,48.93
2019-05-07T19:34:58.616Z,49.51
2019-05-07T19:37:25.494Z,49.47
2019-05-07T19:39:52.487Z,49.11
2019-05-07T19:42:19.275Z,48.86
2019-05-07T19:44:46.746Z,49.73
2019-05-07T19:47:14.008Z,50.43
2019-05-07T19:49:41.882Z,50.43
2019-05-07T19:52:08.982Z,51.12
2019-05-07T19:54:35.968Z,51.45
2019-05-07T19:57:03.895Z,51.16
2019-05-07T19:59:32.650Z,51.13
2019-05-07T20:02:03.146Z,51.90
2019-05-07T20:04:31.987Z,51.80
2019-05-07T20:06:59.106Z,52.77
2019-05-07T20:09:32.551Z,51.97
2019-05-07T20:12:02.605Z,51.97
2019-05-07T20:14:29.048Z,52.75
2019-05-07T20:16:56.422Z,53.14
2019-05-07T20:19:23.496Z,51.96
2019-05-07T20:21:53.047Z,51.65
2019-05-07T20:24:23.465Z,52.13
2019-05-07T20:26:52.744Z,53.00
2019-05-07T20:29:22.717Z,54.53
2019-05-07T20:31:53.252Z,53.71
2019-05-07T20:34:22.127Z,53.96
2019-05-07T20:36:51.849Z,53.91
2019-05-07T20:39:18.957Z,53.74
2019-05-07T20:41:47.797Z,53.55
2019-05-07T20:44:14.600Z,53.49
2019-05-07T20:46:43.012Z,53.11
2019-05-07T20:49:10.257Z,52.99
2019-05-07T20:51:37.491Z,53.33
2019-05-07T20:54:09.431Z,53.68
2019-05-07T20:56:42.025Z,53.67
2019-05-07T20:59:09.599Z,53.80
2019-05-07T21:01:37.564Z,54.47
2019-05-07T21:04:06.352Z,54.45
2019-05-07T21:06:35.336Z,54.78
2019-05-07T21:09:06.711Z,55.36
2019-05-07T21:11:33.698Z,55.70
2019-05-07T21:14:03.335Z,55.79
2019-05-07T21:16:33.687Z,55.20
2019-05-07T21:19:03.018Z,55.75
2019-05-07T21:21:30.019Z,56.97
2019-05-07T21:23:56.931Z,57.10
2019-05-07T21:26:23.949Z,57.42
2019-05-07T21:28:53.659Z,57.19
2019-05-07T21:31:22.818Z,56.74
2019-05-07T21:33:52.198Z,56.51
2019-05-07T21:36:18.644Z,57.10
2019-05-07T21:38:45.651Z,57.78
2019-05-07T21:41:15.390Z,57.31
2019-05-07T21:43:46.221Z,57.17
2019-05-07T21:46:13.749Z,56.68
2019-05-07T21:48:40.709Z,56.12
2019-05-07T21:51:08.160Z,56.95
2019-05-07T21:53:36.958Z,57.29
2019-05-07T21:56:12.340Z,56.96
2019-05-07T21:58:45.145Z,56.93
2019-05-07T22:01:16.389Z,57.41
2019-05-07T22:03:46.112Z,58.76
2019-05-07T22:06:15.963Z,59.95
2019-05-07T22:08:43.337Z,59.49
2019-05-07T22:11:12.273Z,58.54
2019-05-07T22:13:39.258Z,59.61
2019-05-07T22:16:06.241Z,60.04
2019-05-07T22:18:34.588Z,59.93
2019-05-07T22:21:02.944Z,59.46
2019-05-07T22:23:32.358Z,59.75
2019-05-07T22:26:16.472Z,59.74
2019-05-07T22:28:33.140Z,60.52
2019-05-07T22:31:12.682Z,60.45
2019-05-07T22:33:44.043Z,60.13
2019-05-07T22:36:12.684Z,59.36
2019-05-07T22:38:40.078Z,58.40
2019-05-07T22:41:07.319Z,58.43
2019-05-07T22:43:34.238Z,58.21
2019-05-07T22:46:01.226Z,59.56
2019-05-07T22:48:28.091Z,59.81
2019-05-07T22:50:56.909Z,59.85
2019-05-07T22:53:24.027Z,59.43
2019-05-07T22:55:52.555Z,59.11
2019-05-07T22:58:22.200Z,59.08
2019-05-07T23:00:51.337Z,59.90
2019-05-07T23:03:20.054Z,60.92
2019-05-07T23:05:49.209Z,60.35
2019-05-07T23:08:16.224Z,60.12
2019-05-07T23:10:45.301Z,60.54
2019-05-07T23:13:13.035Z,60.67
2019-05-07T23:15:40.177Z,60.89
2019-05-07T23:18:06.938Z,61.35
2019-05-07T23:20:33.719Z,60.96
2019-05-07T23:23:02.860Z,61.46
2019-05-07T23:25:32.072Z,61.55
2019-05-07T23:28:04.900Z,61.69
2019-05-07T23:30:30.466Z,61.63
2019-05-07T23:33:02.405Z,61.68
2019-05-07T23:35:32.862Z,61.79
2019-05-07T23:38:02.459Z,62.19
2019-05-07T23:40:32.372Z,62.58
2019-05-07T23:43:04.608Z,61.59
2019-05-07T23:45:39.441Z,61.39
2019-05-07T23:48:07.950Z,60.89
2019-05-07T23:50:35.138Z,61.08
2019-05-07T23:53:02.340Z,60.54
2019-05-07T23:55:31.817Z,61.05
2019-05-07T23:57:59.009Z,61.28
